sensor_id;sensor_type;location;lat;lon;timestamp;P1;durP1;ratioP1;P2;durP2;ratioP2
53313;SDS011;39202;51.468;7.146;2023-03-23T00:02:03;0.45;;;0.45;;
53313;SDS011;39202;51.468;7.146;2023-03-23T00:07:05;0.40;;;0.40;;
53313;SDS011;39202;51.468;7.146;2023-03-23T00:12:07;0.40;;;0.40;;
53313;SDS011;39202;51.468;7.146;2023-03-23T00:17:13;0.40;;;0.40;;
53313;SDS011;39202;51.468;7.146;2023-03-23T00:22:15;0.43;;;0.43;;
53313;SDS011;39202;51.468;7.146;2023-03-23T00:27:21;0.43;;;0.43;;
53313;SDS011;39202;51.468;7.146;2023-03-23T00:32:25;0.50;;;0.50;;
53313;SDS011;39202;51.468;7.146;2023-03-23T00:37:28;0.40;;;0.40;;
53313;SDS011;39202;51.468;7.146;2023-03-23T00:42:30;0.40;;;0.40;;
53313;SDS011;39202;51.468;7.146;2023-03-23T00:47:37;0.40;;;0.40;;
53313;SDS011;39202;51.468;7.146;2023-03-23T00:52:40;0.50;;;0.50;;
53313;SDS011;39202;51.468;7.146;2023-03-23T00:57:42;0.30;;;0.30;;
53313;SDS011;39202;51.468;7.146;2023-03-23T01:02:45;0.50;;;0.50;;
53313;SDS011;39202;51.468;7.146;2023-03-23T01:07:47;0.50;;;0.50;;
53313;SDS011;39202;51.468;7.146;2023-03-23T01:12:49;0.38;;;0.38;;
53313;SDS011;39202;51.468;7.146;2023-03-23T01:17:52;0.50;;;0.50;;
53313;SDS011;39202;51.468;7.146;2023-03-23T01:22:54;0.45;;;0.45;;
53313;SDS011;39202;51.468;7.146;2023-03-23T01:28:00;0.40;;;0.40;;
53313;SDS011;39202;51.468;7.146;2023-03-23T01:33:03;0.50;;;0.50;;
53313;SDS011;39202;51.468;7.146;2023-03-23T01:38:05;0.40;;;0.40;;
53313;SDS011;39202;51.468;7.146;2023-03-23T01:43:08;0.50;;;0.50;;
53313;SDS011;39202;51.468;7.146;2023-03-23T01:48:16;0.38;;;0.38;;
53313;SDS011;39202;51.468;7.146;2023-03-23T01:53:20;0.40;;;0.40;;
53313;SDS011;39202;51.468;7.146;2023-03-23T01:58:24;0.40;;;0.40;;
53313;SDS011;39202;51.468;7.146;2023-03-23T02:03:29;0.50;;;0.50;;
53313;SDS011;39202;51.468;7.146;2023-03-23T02:08:32;0.50;;;0.50;;
53313;SDS011;39202;51.468;7.146;2023-03-23T02:13:35;0.40;;;0.40;;
53313;SDS011;39202;51.468;7.146;2023-03-23T02:18:44;0.30;;;0.30;;
53313;SDS011;39202;51.468;7.146;2023-03-23T02:24:16;0.40;;;0.40;;
53313;SDS011;39202;51.468;7.146;2023-03-23T02:29:59;0.50;;;0.50;;
53313;SDS011;39202;51.468;7.146;2023-03-23T02:35:17;0.40;;;0.40;;
53313;SDS011;39202;51.468;7.146;2023-03-23T02:40:22;0.50;;;0.40;;
53313;SDS011;39202;51.468;7.146;2023-03-23T02:45:28;0.40;;;0.40;;
53313;SDS011;39202;51.468;7.146;2023-03-23T02:50:35;0.52;;;0.52;;
53313;SDS011;39202;51.468;7.146;2023-03-23T02:55:38;0.40;;;0.40;;
53313;SDS011;39202;51.468;7.146;2023-03-23T03:00:42;0.50;;;0.50;;
53313;SDS011;39202;51.468;7.146;2023-03-23T03:05:47;0.40;;;0.40;;
53313;SDS011;39202;51.468;7.146;2023-03-23T03:11:02;0.30;;;0.30;;
53313;SDS011;39202;51.468;7.146;2023-03-23T03:16:10;0.40;;;0.40;;
53313;SDS011;39202;51.468;7.146;2023-03-23T03:21:21;0.40;;;0.40;;
53313;SDS011;39202;51.468;7.146;2023-03-23T03:26:27;0.40;;;0.40;;
53313;SDS011;39202;51.468;7.146;2023-03-23T03:31:32;0.40;;;0.40;;
53313;SDS011;39202;51.468;7.146;2023-03-23T03:36:38;0.38;;;0.38;;
53313;SDS011;39202;51.468;7.146;2023-03-23T03:41:42;0.50;;;0.50;;
53313;SDS011;39202;51.468;7.146;2023-03-23T03:46:44;0.50;;;0.50;;
53313;SDS011;39202;51.468;7.146;2023-03-23T03:51:47;0.50;;;0.50;;
53313;SDS011;39202;51.468;7.146;2023-03-23T03:56:49;0.40;;;0.40;;
53313;SDS011;39202;51.468;7.146;2023-03-23T04:01:57;0.40;;;0.40;;
53313;SDS011;39202;51.468;7.146;2023-03-23T04:07:00;0.40;;;0.40;;
53313;SDS011;39202;51.468;7.146;2023-03-23T04:12:03;0.40;;;0.40;;
53313;SDS011;39202;51.468;7.146;2023-03-23T04:17:05;0.30;;;0.30;;
53313;SDS011;39202;51.468;7.146;2023-03-23T04:22:10;0.40;;;0.40;;
53313;SDS011;39202;51.468;7.146;2023-03-23T04:27:12;0.45;;;0.45;;
53313;SDS011;39202;51.468;7.146;2023-03-23T04:32:15;0.40;;;0.40;;
53313;SDS011;39202;51.468;7.146;2023-03-23T04:37:19;0.40;;;0.40;;
53313;SDS011;39202;51.468;7.146;2023-03-23T04:42:26;0.40;;;0.40;;
53313;SDS011;39202;51.468;7.146;2023-03-23T04:47:31;0.40;;;0.40;;
53313;SDS011;39202;51.468;7.146;2023-03-23T04:52:35;0.40;;;0.40;;
53313;SDS011;39202;51.468;7.146;2023-03-23T04:57:40;0.40;;;0.40;;
53313;SDS011;39202;51.468;7.146;2023-03-23T05:02:42;0.40;;;0.40;;
53313;SDS011;39202;51.468;7.146;2023-03-23T05:07:45;0.40;;;0.40;;
53313;SDS011;39202;51.468;7.146;2023-03-23T05:12:47;0.40;;;0.40;;
53313;SDS011;39202;51.468;7.146;2023-03-23T05:17:50;0.30;;;0.30;;
53313;SDS011;39202;51.468;7.146;2023-03-23T05:22:54;0.43;;;0.43;;
53313;SDS011;39202;51.468;7.146;2023-03-23T05:27:57;0.40;;;0.40;;
53313;SDS011;39202;51.468;7.146;2023-03-23T05:33:00;0.40;;;0.40;;
53313;SDS011;39202;51.468;7.146;2023-03-23T05:38:04;0.40;;;0.40;;
53313;SDS011;39202;51.468;7.146;2023-03-23T05:43:06;0.40;;;0.40;;
53313;SDS011;39202;51.468;7.146;2023-03-23T05:48:08;0.50;;;0.50;;
53313;SDS011;39202;51.468;7.146;2023-03-23T05:53:11;0.40;;;0.40;;
53313;SDS011;39202;51.468;7.146;2023-03-23T05:58:13;0.40;;;0.40;;
53313;SDS011;39202;51.468;7.146;2023-03-23T06:03:15;0.50;;;0.50;;
53313;SDS011;39202;51.468;7.146;2023-03-23T06:08:18;0.40;;;0.40;;
53313;SDS011;39202;51.468;7.146;2023-03-23T06:13:19;0.40;;;0.40;;
53313;SDS011;39202;51.468;7.146;2023-03-23T06:18:21;0.43;;;0.43;;
53313;SDS011;39202;51.468;7.146;2023-03-23T06:23:24;0.30;;;0.30;;
53313;SDS011;39202;51.468;7.146;2023-03-23T06:28:26;0.40;;;0.40;;
53313;SDS011;39202;51.468;7.146;2023-03-23T06:33:28;0.40;;;0.40;;
53313;SDS011;39202;51.468;7.146;2023-03-23T06:38:32;0.40;;;0.40;;
53313;SDS011;39202;51.468;7.146;2023-03-23T06:43:33;0.40;;;0.40;;
53313;SDS011;39202;51.468;7.146;2023-03-23T06:48:40;0.40;;;0.40;;
53313;SDS011;39202;51.468;7.146;2023-03-23T06:53:43;0.50;;;0.50;;
53313;SDS011;39202;51.468;7.146;2023-03-23T06:58:45;0.40;;;0.40;;
53313;SDS011;39202;51.468;7.146;2023-03-23T07:03:47;0.50;;;0.50;;
53313;SDS011;39202;51.468;7.146;2023-03-23T07:08:51;0.40;;;0.40;;
53313;SDS011;39202;51.468;7.146;2023-03-23T07:13:53;0.40;;;0.40;;
53313;SDS011;39202;51.468;7.146;2023-03-23T07:18:54;0.40;;;0.40;;
53313;SDS011;39202;51.468;7.146;2023-03-23T07:23:58;0.38;;;0.38;;
53313;SDS011;39202;51.468;7.146;2023-03-23T07:28:59;0.45;;;0.45;;
53313;SDS011;39202;51.468;7.146;2023-03-23T07:34:01;0.40;;;0.40;;
53313;SDS011;39202;51.468;7.146;2023-03-23T07:39:05;0.40;;;0.40;;
53313;SDS011;39202;51.468;7.146;2023-03-23T07:44:07;0.45;;;0.40;;
53313;SDS011;39202;51.468;7.146;2023-03-23T07:49:09;1.85;;;0.50;;
53313;SDS011;39202;51.468;7.146;2023-03-23T07:54:12;0.45;;;0.45;;
53313;SDS011;39202;51.468;7.146;2023-03-23T07:59:16;0.50;;;0.50;;
53313;SDS011;39202;51.468;7.146;2023-03-23T08:04:17;0.50;;;0.50;;
53313;SDS011;39202;51.468;7.146;2023-03-23T08:09:21;0.73;;;0.35;;
53313;SDS011;39202;51.468;7.146;2023-03-23T08:14:23;0.60;;;0.60;;
53313;SDS011;39202;51.468;7.146;2023-03-23T08:19:28;0.55;;;0.55;;
53313;SDS011;39202;51.468;7.146;2023-03-23T08:24:32;0.60;;;0.60;;
53313;SDS011;39202;51.468;7.146;2023-03-23T08:29:34;0.60;;;0.60;;
53313;SDS011;39202;51.468;7.146;2023-03-23T08:34:36;0.35;;;0.35;;
53313;SDS011;39202;51.468;7.146;2023-03-23T08:39:40;0.50;;;0.50;;
53313;SDS011;39202;51.468;7.146;2023-03-23T08:44:43;0.40;;;0.40;;
53313;SDS011;39202;51.468;7.146;2023-03-23T08:49:45;0.50;;;0.50;;
53313;SDS011;39202;51.468;7.146;2023-03-23T08:54:48;0.57;;;0.57;;
53313;SDS011;39202;51.468;7.146;2023-03-23T08:59:50;0.57;;;0.57;;
53313;SDS011;39202;51.468;7.146;2023-03-23T09:04:54;0.45;;;0.45;;
53313;SDS011;39202;51.468;7.146;2023-03-23T09:09:57;0.40;;;0.40;;
53313;SDS011;39202;51.468;7.146;2023-03-23T09:14:58;0.60;;;0.60;;
53313;SDS011;39202;51.468;7.146;2023-03-23T09:20:03;0.95;;;0.70;;
53313;SDS011;39202;51.468;7.146;2023-03-23T09:25:12;1.13;;;0.50;;
53313;SDS011;39202;51.468;7.146;2023-03-23T09:30:15;1.05;;;0.63;;
53313;SDS011;39202;51.468;7.146;2023-03-23T09:35:19;0.60;;;0.60;;
53313;SDS011;39202;51.468;7.146;2023-03-23T09:40:24;0.60;;;0.60;;
53313;SDS011;39202;51.468;7.146;2023-03-23T09:45:30;0.40;;;0.40;;
53313;SDS011;39202;51.468;7.146;2023-03-23T09:50:37;0.57;;;0.57;;
53313;SDS011;39202;51.468;7.146;2023-03-23T09:55:45;0.60;;;0.60;;
53313;SDS011;39202;51.468;7.146;2023-03-23T10:00:50;0.60;;;0.60;;
53313;SDS011;39202;51.468;7.146;2023-03-23T10:05:55;0.70;;;0.70;;
53313;SDS011;39202;51.468;7.146;2023-03-23T10:10:59;0.57;;;0.57;;
53313;SDS011;39202;51.468;7.146;2023-03-23T10:16:04;0.60;;;0.60;;
53313;SDS011;39202;51.468;7.146;2023-03-23T10:21:10;0.75;;;0.75;;
53313;SDS011;39202;51.468;7.146;2023-03-23T10:26:22;0.60;;;0.60;;
53313;SDS011;39202;51.468;7.146;2023-03-23T10:31:38;0.70;;;0.70;;
53313;SDS011;39202;51.468;7.146;2023-03-23T10:36:48;0.70;;;0.70;;
53313;SDS011;39202;51.468;7.146;2023-03-23T10:41:57;0.70;;;0.70;;
53313;SDS011;39202;51.468;7.146;2023-03-23T10:47:07;0.77;;;0.70;;
53313;SDS011;39202;51.468;7.146;2023-03-23T10:52:13;0.60;;;0.60;;
53313;SDS011;39202;51.468;7.146;2023-03-23T10:57:28;0.70;;;0.70;;
53313;SDS011;39202;51.468;7.146;2023-03-23T11:02:31;1.50;;;0.75;;
53313;SDS011;39202;51.468;7.146;2023-03-23T11:07:34;1.42;;;1.30;;
53313;SDS011;39202;51.468;7.146;2023-03-23T11:12:38;1.42;;;1.17;;
53313;SDS011;39202;51.468;7.146;2023-03-23T11:17:39;1.75;;;1.20;;
53313;SDS011;39202;51.468;7.146;2023-03-23T11:22:42;1.38;;;1.05;;
53313;SDS011;39202;51.468;7.146;2023-03-23T11:27:45;1.33;;;1.10;;
53313;SDS011;39202;51.468;7.146;2023-03-23T11:32:47;1.15;;;1.05;;
53313;SDS011;39202;51.468;7.146;2023-03-23T11:37:50;1.58;;;1.40;;
53313;SDS011;39202;51.468;7.146;2023-03-23T11:42:58;1.08;;;1.00;;
53313;SDS011;39202;51.468;7.146;2023-03-23T11:48:06;1.50;;;1.17;;
53313;SDS011;39202;51.468;7.146;2023-03-23T11:53:16;1.20;;;1.10;;
53313;SDS011;39202;51.468;7.146;2023-03-23T11:58:27;1.73;;;1.30;;
53313;SDS011;39202;51.468;7.146;2023-03-23T12:03:38;2.55;;;1.15;;
53313;SDS011;39202;51.468;7.146;2023-03-23T12:09:02;0.98;;;0.98;;
53313;SDS011;39202;51.468;7.146;2023-03-23T12:14:20;1.13;;;1.05;;
53313;SDS011;39202;51.468;7.146;2023-03-23T12:19:29;2.08;;;1.13;;
53313;SDS011;39202;51.468;7.146;2023-03-23T12:24:44;1.40;;;1.30;;
53313;SDS011;39202;51.468;7.146;2023-03-23T12:30:04;1.35;;;1.10;;
53313;SDS011;39202;51.468;7.146;2023-03-23T12:35:32;1.60;;;1.20;;
53313;SDS011;39202;51.468;7.146;2023-03-23T12:40:43;1.00;;;1.00;;
53313;SDS011;39202;51.468;7.146;2023-03-23T12:51:48;1.00;;;1.00;;
53313;SDS011;39202;51.468;7.146;2023-03-23T12:56:54;1.40;;;1.17;;
53313;SDS011;39202;51.468;7.146;2023-03-23T13:02:01;1.10;;;1.00;;
53313;SDS011;39202;51.468;7.146;2023-03-23T13:07:14;1.13;;;1.02;;
53313;SDS011;39202;51.468;7.146;2023-03-23T13:12:20;1.60;;;1.20;;
53313;SDS011;39202;51.468;7.146;2023-03-23T13:17:26;1.17;;;1.08;;
53313;SDS011;39202;51.468;7.146;2023-03-23T13:22:39;1.10;;;1.00;;
53313;SDS011;39202;51.468;7.146;2023-03-23T13:27:45;0.90;;;0.90;;
53313;SDS011;39202;51.468;7.146;2023-03-23T13:33:02;0.98;;;0.80;;
53313;SDS011;39202;51.468;7.146;2023-03-23T13:38:13;0.88;;;0.88;;
53313;SDS011;39202;51.468;7.146;2023-03-23T13:43:28;0.90;;;0.82;;
53313;SDS011;39202;51.468;7.146;2023-03-23T13:48:39;0.88;;;0.70;;
53313;SDS011;39202;51.468;7.146;2023-03-23T13:53:45;1.52;;;0.90;;
53313;SDS011;39202;51.468;7.146;2023-03-23T13:58:49;1.00;;;0.90;;
53313;SDS011;39202;51.468;7.146;2023-03-23T14:03:54;1.02;;;0.82;;
53313;SDS011;39202;51.468;7.146;2023-03-23T14:09:02;0.75;;;0.75;;
53313;SDS011;39202;51.468;7.146;2023-03-23T14:14:07;0.85;;;0.85;;
53313;SDS011;39202;51.468;7.146;2023-03-23T14:19:18;1.33;;;1.00;;
53313;SDS011;39202;51.468;7.146;2023-03-23T14:24:25;0.82;;;0.82;;
53313;SDS011;39202;51.468;7.146;2023-03-23T14:29:28;1.65;;;1.00;;
53313;SDS011;39202;51.468;7.146;2023-03-23T14:34:31;1.02;;;1.00;;
53313;SDS011;39202;51.468;7.146;2023-03-23T14:39:35;1.17;;;1.08;;
53313;SDS011;39202;51.468;7.146;2023-03-23T14:44:39;0.90;;;0.73;;
53313;SDS011;39202;51.468;7.146;2023-03-23T14:49:43;0.65;;;0.60;;
53313;SDS011;39202;51.468;7.146;2023-03-23T14:54:46;1.17;;;0.90;;
53313;SDS011;39202;51.468;7.146;2023-03-23T14:59:48;0.70;;;0.70;;
53313;SDS011;39202;51.468;7.146;2023-03-23T15:04:51;0.52;;;0.52;;
53313;SDS011;39202;51.468;7.146;2023-03-23T15:09:57;1.15;;;0.70;;
53313;SDS011;39202;51.468;7.146;2023-03-23T15:15:00;0.60;;;0.60;;
53313;SDS011;39202;51.468;7.146;2023-03-23T15:20:08;0.55;;;0.55;;
53313;SDS011;39202;51.468;7.146;2023-03-23T15:25:18;0.52;;;0.52;;
53313;SDS011;39202;51.468;7.146;2023-03-23T15:30:32;0.50;;;0.50;;
53313;SDS011;39202;51.468;7.146;2023-03-23T15:35:37;0.50;;;0.50;;
53313;SDS011;39202;51.468;7.146;2023-03-23T15:40:42;0.68;;;0.68;;
53313;SDS011;39202;51.468;7.146;2023-03-23T15:45:52;1.70;;;1.00;;
53313;SDS011;39202;51.468;7.146;2023-03-23T15:50:56;0.80;;;0.80;;
53313;SDS011;39202;51.468;7.146;2023-03-23T15:56:00;0.63;;;0.63;;
53313;SDS011;39202;51.468;7.146;2023-03-23T16:01:04;2.45;;;0.98;;
53313;SDS011;39202;51.468;7.146;2023-03-23T16:06:09;0.80;;;0.68;;
53313;SDS011;39202;51.468;7.146;2023-03-23T16:11:14;0.80;;;0.80;;
53313;SDS011;39202;51.468;7.146;2023-03-23T16:16:18;1.20;;;0.65;;
53313;SDS011;39202;51.468;7.146;2023-03-23T16:21:22;0.70;;;0.70;;
53313;SDS011;39202;51.468;7.146;2023-03-23T16:26:25;0.60;;;0.60;;
53313;SDS011;39202;51.468;7.146;2023-03-23T16:31:27;0.68;;;0.60;;
53313;SDS011;39202;51.468;7.146;2023-03-23T16:36:29;1.08;;;0.70;;
53313;SDS011;39202;51.468;7.146;2023-03-23T16:41:32;0.70;;;0.70;;
53313;SDS011;39202;51.468;7.146;2023-03-23T16:46:34;1.00;;;0.80;;
53313;SDS011;39202;51.468;7.146;2023-03-23T16:51:35;1.23;;;0.60;;
53313;SDS011;39202;51.468;7.146;2023-03-23T16:56:39;0.60;;;0.60;;
53313;SDS011;39202;51.468;7.146;2023-03-23T17:01:45;0.70;;;0.70;;
53313;SDS011;39202;51.468;7.146;2023-03-23T17:06:47;1.17;;;0.57;;
53313;SDS011;39202;51.468;7.146;2023-03-23T17:11:52;0.95;;;0.80;;
53313;SDS011;39202;51.468;7.146;2023-03-23T17:16:54;1.52;;;0.63;;
53313;SDS011;39202;51.468;7.146;2023-03-23T17:21:55;0.52;;;0.52;;
53313;SDS011;39202;51.468;7.146;2023-03-23T17:26:59;0.73;;;0.70;;
53313;SDS011;39202;51.468;7.146;2023-03-23T17:32:00;4.07;;;0.77;;
53313;SDS011;39202;51.468;7.146;2023-03-23T17:37:02;0.90;;;0.90;;
53313;SDS011;39202;51.468;7.146;2023-03-23T17:42:06;0.73;;;0.63;;
53313;SDS011;39202;51.468;7.146;2023-03-23T17:47:08;1.38;;;0.68;;
53313;SDS011;39202;51.468;7.146;2023-03-23T17:52:10;0.63;;;0.63;;
53313;SDS011;39202;51.468;7.146;2023-03-23T17:57:13;0.57;;;0.57;;
53313;SDS011;39202;51.468;7.146;2023-03-23T18:02:16;0.60;;;0.60;;
53313;SDS011;39202;51.468;7.146;2023-03-23T18:07:18;0.75;;;0.65;;
53313;SDS011;39202;51.468;7.146;2023-03-23T18:12:23;1.50;;;0.70;;
53313;SDS011;39202;51.468;7.146;2023-03-23T18:17:25;0.77;;;0.68;;
53313;SDS011;39202;51.468;7.146;2023-03-23T18:22:27;0.60;;;0.60;;
53313;SDS011;39202;51.468;7.146;2023-03-23T18:27:30;0.70;;;0.70;;
53313;SDS011;39202;51.468;7.146;2023-03-23T18:32:33;0.57;;;0.57;;
53313;SDS011;39202;51.468;7.146;2023-03-23T18:37:35;0.50;;;0.50;;
53313;SDS011;39202;51.468;7.146;2023-03-23T18:42:40;1.10;;;0.70;;
53313;SDS011;39202;51.468;7.146;2023-03-23T18:47:43;0.50;;;0.50;;
53313;SDS011;39202;51.468;7.146;2023-03-23T18:52:45;0.70;;;0.70;;
53313;SDS011;39202;51.468;7.146;2023-03-23T18:57:48;0.50;;;0.50;;
53313;SDS011;39202;51.468;7.146;2023-03-23T19:02:50;0.70;;;0.70;;
53313;SDS011;39202;51.468;7.146;2023-03-23T19:07:52;1.63;;;0.60;;
53313;SDS011;39202;51.468;7.146;2023-03-23T19:12:55;0.68;;;0.68;;
53313;SDS011;39202;51.468;7.146;2023-03-23T19:17:57;0.68;;;0.68;;
53313;SDS011;39202;51.468;7.146;2023-03-23T19:22:59;0.60;;;0.60;;
53313;SDS011;39202;51.468;7.146;2023-03-23T19:28:02;0.60;;;0.60;;
53313;SDS011;39202;51.468;7.146;2023-03-23T19:33:04;0.60;;;0.60;;
53313;SDS011;39202;51.468;7.146;2023-03-23T19:38:06;0.60;;;0.60;;
53313;SDS011;39202;51.468;7.146;2023-03-23T19:43:09;0.65;;;0.65;;
53313;SDS011;39202;51.468;7.146;2023-03-23T19:48:11;0.50;;;0.50;;
53313;SDS011;39202;51.468;7.146;2023-03-23T19:53:13;0.50;;;0.50;;
53313;SDS011;39202;51.468;7.146;2023-03-23T19:58:16;0.52;;;0.52;;
53313;SDS011;39202;51.468;7.146;2023-03-23T20:03:18;0.50;;;0.50;;
53313;SDS011;39202;51.468;7.146;2023-03-23T20:08:20;0.60;;;0.60;;
53313;SDS011;39202;51.468;7.146;2023-03-23T20:13:23;0.60;;;0.60;;
53313;SDS011;39202;51.468;7.146;2023-03-23T20:18:25;0.52;;;0.52;;
53313;SDS011;39202;51.468;7.146;2023-03-23T20:23:28;0.60;;;0.60;;
53313;SDS011;39202;51.468;7.146;2023-03-23T20:28:31;0.50;;;0.50;;
53313;SDS011;39202;51.468;7.146;2023-03-23T20:33:34;0.50;;;0.50;;
53313;SDS011;39202;51.468;7.146;2023-03-23T20:38:37;0.60;;;0.60;;
53313;SDS011;39202;51.468;7.146;2023-03-23T20:43:43;0.60;;;0.60;;
53313;SDS011;39202;51.468;7.146;2023-03-23T20:48:45;0.50;;;0.50;;
53313;SDS011;39202;51.468;7.146;2023-03-23T20:53:48;0.40;;;0.40;;
53313;SDS011;39202;51.468;7.146;2023-03-23T20:58:51;0.50;;;0.50;;
53313;SDS011;39202;51.468;7.146;2023-03-23T21:03:53;0.60;;;0.60;;
53313;SDS011;39202;51.468;7.146;2023-03-23T21:08:56;0.40;;;0.40;;
53313;SDS011;39202;51.468;7.146;2023-03-23T21:14:00;0.60;;;0.60;;
53313;SDS011;39202;51.468;7.146;2023-03-23T21:19:02;0.50;;;0.50;;
53313;SDS011;39202;51.468;7.146;2023-03-23T21:24:05;0.43;;;0.43;;
53313;SDS011;39202;51.468;7.146;2023-03-23T21:29:09;0.50;;;0.50;;
53313;SDS011;39202;51.468;7.146;2023-03-23T21:34:11;0.50;;;0.50;;
53313;SDS011;39202;51.468;7.146;2023-03-23T21:39:13;0.60;;;0.60;;
53313;SDS011;39202;51.468;7.146;2023-03-23T21:44:16;0.68;;;0.68;;
53313;SDS011;39202;51.468;7.146;2023-03-23T21:49:18;0.57;;;0.57;;
53313;SDS011;39202;51.468;7.146;2023-03-23T21:54:20;0.50;;;0.50;;
53313;SDS011;39202;51.468;7.146;2023-03-23T21:59:23;0.60;;;0.60;;
53313;SDS011;39202;51.468;7.146;2023-03-23T22:04:25;0.50;;;0.50;;
53313;SDS011;39202;51.468;7.146;2023-03-23T22:09:27;0.60;;;0.60;;
53313;SDS011;39202;51.468;7.146;2023-03-23T22:14:30;0.55;;;0.55;;
53313;SDS011;39202;51.468;7.146;2023-03-23T22:19:32;0.40;;;0.40;;
53313;SDS011;39202;51.468;7.146;2023-03-23T22:24:34;0.57;;;0.52;;
53313;SDS011;39202;51.468;7.146;2023-03-23T22:29:37;0.50;;;0.50;;
53313;SDS011;39202;51.468;7.146;2023-03-23T22:34:39;0.50;;;0.50;;
53313;SDS011;39202;51.468;7.146;2023-03-23T22:39:41;0.50;;;0.50;;
53313;SDS011;39202;51.468;7.146;2023-03-23T22:44:44;0.50;;;0.50;;
53313;SDS011;39202;51.468;7.146;2023-03-23T22:49:46;0.60;;;0.60;;
53313;SDS011;39202;51.468;7.146;2023-03-23T22:54:48;0.50;;;0.50;;
53313;SDS011;39202;51.468;7.146;2023-03-23T22:59:51;0.50;;;0.50;;
53313;SDS011;39202;51.468;7.146;2023-03-23T23:04:53;0.50;;;0.50;;
53313;SDS011;39202;51.468;7.146;2023-03-23T23:09:56;0.45;;;0.45;;
53313;SDS011;39202;51.468;7.146;2023-03-23T23:14:59;0.50;;;0.50;;
53313;SDS011;39202;51.468;7.146;2023-03-23T23:20:01;0.47;;;0.47;;
53313;SDS011;39202;51.468;7.146;2023-03-23T23:25:05;0.50;;;0.50;;
53313;SDS011;39202;51.468;7.146;2023-03-23T23:30:11;0.52;;;0.52;;
53313;SDS011;39202;51.468;7.146;2023-03-23T23:35:13;0.50;;;0.50;;
53313;SDS011;39202;51.468;7.146;2023-03-23T23:40:15;0.57;;;0.57;;
53313;SDS011;39202;51.468;7.146;2023-03-23T23:45:19;0.40;;;0.40;;
53313;SDS011;39202;51.468;7.146;2023-03-23T23:50:21;0.40;;;0.40;;
53313;SDS011;39202;51.468;7.146;2023-03-23T23:55:23;0.50;;;0.50;;
